createdAt,value
2017-09-22T00:00:09.615Z,101597.28
2017-09-22T00:02:44.299Z,101600.30
2017-09-22T00:05:18.907Z,101600.61
2017-09-22T00:07:53.331Z,101597.33
2017-09-22T00:10:28.107Z,101595.77
2017-09-22T00:13:02.619Z,101596.34
2017-09-22T00:15:37.402Z,101593.44
2017-09-22T00:18:12.071Z,101590.50
2017-09-22T00:20:46.804Z,101584.75
2017-09-22T00:23:21.403Z,101588.30
2017-09-22T00:25:56.160Z,101586.63
2017-09-22T00:28:30.899Z,101588.73
2017-09-22T00:31:05.404Z,101590.13
2017-09-22T00:33:40.479Z,101589.09
2017-09-22T00:36:15.307Z,101585.41
2017-09-22T00:38:49.535Z,101585.05
2017-09-22T00:41:24.026Z,101584.86
2017-09-22T00:43:59.275Z,101584.48
2017-09-22T00:46:33.835Z,101579.97
2017-09-22T00:49:08.959Z,101576.29
2017-09-22T00:51:43.340Z,101576.31
2017-09-22T00:54:18.312Z,101572.77
2017-09-22T00:56:53.012Z,101569.88
2017-09-22T00:59:27.842Z,101574.23
2017-09-22T01:02:02.331Z,101571.66
2017-09-22T01:04:37.214Z,101569.59
2017-09-22T01:07:12.147Z,101571.75
2017-09-22T01:09:46.907Z,101564.34
2017-09-22T01:12:21.635Z,101573.98
2017-09-22T01:14:56.487Z,101575.22
2017-09-22T01:17:31.386Z,101570.77
2017-09-22T01:20:06.077Z,101573.73
2017-09-22T01:22:41.019Z,101575.58
2017-09-22T01:25:15.775Z,101566.34
2017-09-22T01:27:50.399Z,101555.89
2017-09-22T01:30:25.049Z,101555.70
2017-09-22T01:33:00.660Z,101551.87
2017-09-22T01:35:35.287Z,101555.04
2017-09-22T01:38:09.902Z,101551.77
2017-09-22T01:40:44.450Z,101545.73
2017-09-22T01:43:19.303Z,101546.38
2017-09-22T01:45:53.983Z,101545.14
2017-09-22T01:48:28.499Z,101541.78
2017-09-22T01:51:03.263Z,101544.73
2017-09-22T01:53:38.084Z,101558.06
2017-09-22T01:56:12.833Z,101545.83
2017-09-22T01:58:47.335Z,101540.94
2017-09-22T02:01:22.302Z,101536.89
2017-09-22T02:03:56.672Z,101537.47
2017-09-22T02:06:31.708Z,101541.95
2017-09-22T02:09:06.433Z,101537.00
2017-09-22T02:11:41.318Z,101538.48
2017-09-22T02:14:16.882Z,101541.18
2017-09-22T02:16:51.700Z,101542.26
2017-09-22T02:19:26.495Z,101537.00
2017-09-22T02:22:01.127Z,101532.95
2017-09-22T02:24:35.946Z,101528.84
2017-09-22T02:27:10.755Z,101524.16
2017-09-22T02:29:45.169Z,101526.94
2017-09-22T02:32:20.067Z,101536.17
2017-09-22T02:34:54.592Z,101536.04
2017-09-22T02:37:29.296Z,101536.56
2017-09-22T02:40:03.990Z,101545.69
2017-09-22T02:42:39.545Z,101541.23
2017-09-22T02:45:14.321Z,101547.36
2017-09-22T02:47:49.009Z,101551.20
2017-09-22T02:50:23.860Z,101554.00
2017-09-22T02:52:58.375Z,101552.78
2017-09-22T02:55:33.184Z,101557.34
2017-09-22T02:58:07.606Z,101560.22
2017-09-22T03:00:42.724Z,101560.84
2017-09-22T03:03:17.386Z,101560.55
2017-09-22T03:05:52.574Z,101559.20
2017-09-22T03:08:27.379Z,101561.18
2017-09-22T03:11:02.218Z,101562.81
2017-09-22T03:13:37.019Z,101554.57
2017-09-22T03:16:11.863Z,101559.45
2017-09-22T03:18:46.620Z,101558.06
2017-09-22T03:21:21.314Z,101553.52
2017-09-22T03:23:56.022Z,101552.70
2017-09-22T03:26:30.760Z,101551.30
2017-09-22T03:29:06.011Z,101544.13
2017-09-22T03:31:40.942Z,101551.15
2017-09-22T03:34:15.847Z,101550.74
2017-09-22T03:36:50.690Z,101553.51
2017-09-22T03:39:25.430Z,101542.52
2017-09-22T03:42:00.227Z,101549.63
2017-09-22T03:44:35.028Z,101548.52
2017-09-22T03:47:10.635Z,101558.84
2017-09-22T03:49:45.173Z,101546.04
2017-09-22T03:52:20.210Z,101547.67
2017-09-22T03:54:54.991Z,101551.78
2017-09-22T03:57:29.439Z,101552.50
2017-09-22T04:00:03.882Z,101547.45
2017-09-22T04:02:38.903Z,101542.57
2017-09-22T04:05:13.563Z,101545.20
2017-09-22T04:07:48.163Z,101547.62
2017-09-22T04:10:22.914Z,101547.74
2017-09-22T04:12:57.606Z,101541.74
2017-09-22T04:15:32.545Z,101548.98
2017-09-22T04:18:07.353Z,101543.42
2017-09-22T04:20:42.318Z,101547.74
2017-09-22T04:23:18.259Z,101546.40
2017-09-22T04:25:54.330Z,101551.61
2017-09-22T04:28:30.103Z,101536.98
2017-09-22T04:31:05.157Z,101539.05
2017-09-22T04:33:40.168Z,101539.72
2017-09-22T04:36:15.018Z,101541.30
2017-09-22T04:38:49.756Z,101542.16
2017-09-22T04:41:24.579Z,101543.50
2017-09-22T04:43:59.474Z,101544.48
2017-09-22T04:46:34.296Z,101540.47
2017-09-22T04:49:09.215Z,101533.00
2017-09-22T04:51:44.175Z,101541.64
2017-09-22T04:54:18.863Z,101536.72
2017-09-22T04:56:53.446Z,101535.59
2017-09-22T04:59:28.175Z,101542.26
2017-09-22T05:02:02.878Z,101542.48
2017-09-22T05:04:37.584Z,101533.28
2017-09-22T05:07:12.257Z,101536.70
2017-09-22T05:09:47.059Z,101537.38
2017-09-22T05:12:21.700Z,101535.64
2017-09-22T05:14:56.427Z,101524.30
2017-09-22T05:17:31.143Z,101520.81
2017-09-22T05:20:06.105Z,101528.71
2017-09-22T05:22:40.774Z,101520.21
2017-09-22T05:25:15.550Z,101516.20
2017-09-22T05:27:50.286Z,101517.91
2017-09-22T05:30:25.111Z,101514.61
2017-09-22T05:32:59.854Z,101515.44
2017-09-22T05:35:34.694Z,101527.18
2017-09-22T05:38:09.526Z,101525.44
2017-09-22T05:40:44.255Z,101531.34
2017-09-22T05:43:19.020Z,101530.69
2017-09-22T05:45:53.782Z,101538.04
2017-09-22T05:48:29.047Z,101540.58
2017-09-22T05:51:04.046Z,101538.83
2017-09-22T05:53:38.694Z,101539.53
2017-09-22T05:56:13.603Z,101542.42
2017-09-22T05:58:48.330Z,101540.52
2017-09-22T06:01:23.131Z,101547.38
2017-09-22T06:03:57.736Z,101539.41
2017-09-22T06:06:33.659Z,101541.02
2017-09-22T06:09:07.969Z,101548.67
2017-09-22T06:11:42.986Z,101547.33
2017-09-22T06:14:17.487Z,101544.57
2017-09-22T06:16:52.263Z,101547.50
2017-09-22T06:19:26.955Z,101544.42
2017-09-22T06:22:01.550Z,101553.31
2017-09-22T06:24:36.155Z,101550.43
2017-09-22T06:27:10.983Z,101546.11
2017-09-22T06:29:45.843Z,101542.84
2017-09-22T06:32:20.395Z,101541.47
2017-09-22T06:34:55.068Z,101542.24
2017-09-22T06:37:29.438Z,101549.14
2017-09-22T06:40:04.154Z,101548.13
2017-09-22T06:42:40.186Z,101555.68
2017-09-22T06:45:14.803Z,101556.44
2017-09-22T06:47:49.691Z,101558.63
2017-09-22T06:50:24.314Z,101566.14
2017-09-22T06:52:58.902Z,101568.41
2017-09-22T06:55:33.520Z,101570.52
2017-09-22T06:58:08.419Z,101573.16
2017-09-22T07:00:42.969Z,101571.84
2017-09-22T07:03:18.012Z,101569.42
2017-09-22T07:05:52.836Z,101574.42
2017-09-22T07:08:27.701Z,101573.88
2017-09-22T07:11:02.612Z,101574.89
2017-09-22T07:13:37.303Z,101579.42
2017-09-22T07:16:11.991Z,101578.56
2017-09-22T07:18:46.759Z,101577.34
2017-09-22T07:21:21.277Z,101578.30
2017-09-22T07:23:56.040Z,101579.23
2017-09-22T07:26:30.777Z,101578.36
2017-09-22T07:29:05.524Z,101581.85
2017-09-22T07:31:40.444Z,101585.91
2017-09-22T07:34:15.258Z,101581.36
2017-09-22T07:36:50.673Z,101581.15
2017-09-22T07:39:25.687Z,101577.48
2017-09-22T07:42:00.399Z,101583.20
2017-09-22T07:44:35.142Z,101588.20
2017-09-22T07:47:09.939Z,101593.94
2017-09-22T07:49:44.672Z,101587.34
2017-09-22T07:52:19.395Z,101581.50
2017-09-22T07:54:54.098Z,101585.03
2017-09-22T07:57:29.098Z,101584.14
2017-09-22T08:00:04.168Z,101582.33
2017-09-22T08:02:39.335Z,101581.35
2017-09-22T08:05:14.011Z,101580.67
2017-09-22T08:07:48.926Z,101577.85
2017-09-22T08:10:23.755Z,101577.47
2017-09-22T08:12:58.414Z,101580.95
2017-09-22T08:15:33.503Z,101578.65
2017-09-22T08:18:08.636Z,101584.20
2017-09-22T08:20:43.226Z,101579.15
2017-09-22T08:23:17.962Z,101579.59
2017-09-22T08:25:52.594Z,101579.06
2017-09-22T08:28:27.316Z,101582.25
2017-09-22T08:31:02.221Z,101585.70
2017-09-22T08:33:37.009Z,101582.99
2017-09-22T08:36:12.583Z,101583.70
2017-09-22T08:38:47.308Z,101579.94
2017-09-22T08:41:22.116Z,101583.01
2017-09-22T08:43:56.729Z,101578.87
2017-09-22T08:46:31.534Z,101584.73
2017-09-22T08:49:07.125Z,101589.44
2017-09-22T08:51:41.754Z,101581.74
2017-09-22T08:54:16.331Z,101579.44
2017-09-22T08:56:51.396Z,101579.46
2017-09-22T08:59:26.026Z,101580.34
2017-09-22T09:02:00.695Z,101586.76
2017-09-22T09:04:35.543Z,101588.78
2017-09-22T09:07:10.224Z,101585.05
2017-09-22T09:09:45.765Z,101594.88
2017-09-22T09:12:20.531Z,101581.97
2017-09-22T09:14:55.291Z,101590.61
2017-09-22T09:17:29.944Z,101588.92
2017-09-22T09:20:04.663Z,101597.71
2017-09-22T09:22:40.369Z,101588.63
2017-09-22T09:25:15.224Z,101598.44
2017-09-22T09:27:49.835Z,101598.83
2017-09-22T09:30:24.651Z,101597.13
2017-09-22T09:32:59.449Z,101603.40
2017-09-22T09:35:34.273Z,101609.33
2017-09-22T09:38:09.096Z,101602.84
2017-09-22T09:40:43.838Z,101606.37
2017-09-22T09:43:18.452Z,101596.41
2017-09-22T09:45:53.105Z,101590.61
2017-09-22T09:48:27.807Z,101588.78
2017-09-22T09:51:02.404Z,101587.84
2017-09-22T09:53:37.986Z,101582.96
2017-09-22T09:56:12.716Z,101591.02
2017-09-22T09:58:47.463Z,101580.44
2017-09-22T10:01:23.181Z,101580.73
2017-09-22T10:03:57.922Z,101576.05
2017-09-22T10:06:33.547Z,101576.66
2017-09-22T10:09:07.816Z,101564.91
2017-09-22T10:11:42.731Z,101568.61
2017-09-22T10:14:17.296Z,101562.48
2017-09-22T10:16:51.817Z,101560.91
2017-09-22T10:19:26.579Z,101556.84
2017-09-22T10:22:01.728Z,101552.36
2017-09-22T10:24:36.523Z,101555.62
2017-09-22T10:27:11.156Z,101554.61
2017-09-22T10:29:45.872Z,101552.94
2017-09-22T10:32:20.582Z,101551.38
2017-09-22T10:34:55.305Z,101546.45
2017-09-22T10:37:30.899Z,101548.77
2017-09-22T10:40:05.909Z,101560.39
2017-09-22T10:42:40.703Z,101556.69
2017-09-22T10:45:15.839Z,101560.75
2017-09-22T10:47:50.609Z,101553.98
2017-09-22T10:50:25.494Z,101553.09
2017-09-22T10:53:00.090Z,101546.17
2017-09-22T10:55:34.879Z,101553.09
2017-09-22T10:58:09.796Z,101557.12
2017-09-22T11:00:44.523Z,101558.41
2017-09-22T11:03:19.352Z,101557.55
2017-09-22T11:05:53.975Z,101564.54
2017-09-22T11:08:28.855Z,101563.27
2017-09-22T11:11:03.573Z,101566.38
2017-09-22T11:13:38.419Z,101565.31
2017-09-22T11:16:13.074Z,101566.81
2017-09-22T11:18:47.795Z,101563.05
2017-09-22T11:21:22.062Z,101559.33
2017-09-22T11:23:56.866Z,101562.87
2017-09-22T11:26:31.614Z,101553.39
2017-09-22T11:29:06.422Z,101555.45
2017-09-22T11:31:40.186Z,101555.94
2017-09-22T11:34:14.363Z,101560.81
2017-09-22T11:36:49.596Z,101553.85
2017-09-22T11:39:25.147Z,101553.20
2017-09-22T11:42:00.279Z,101552.95
2017-09-22T11:44:35.099Z,101551.13
2017-09-22T11:47:10.101Z,101543.09
2017-09-22T11:49:44.919Z,101551.41
2017-09-22T11:52:19.819Z,101556.73
2017-09-22T11:54:54.657Z,101547.20
2017-09-22T11:57:29.600Z,101552.70
2017-09-22T12:00:04.308Z,101552.84
2017-09-22T12:02:39.126Z,101548.97
2017-09-22T12:05:13.856Z,101551.30
2017-09-22T12:07:48.687Z,101540.72
2017-09-22T12:10:23.594Z,101537.77
2017-09-22T12:12:58.324Z,101545.16
2017-09-22T12:15:33.099Z,101538.37
2017-09-22T12:18:07.908Z,101541.30
2017-09-22T12:20:42.736Z,101536.86
2017-09-22T12:23:17.241Z,101532.90
2017-09-22T12:25:52.363Z,101536.27
2017-09-22T12:28:26.982Z,101540.11
2017-09-22T12:31:01.685Z,101541.61
2017-09-22T12:33:36.710Z,101534.87
2017-09-22T12:36:11.731Z,101539.80
2017-09-22T12:38:46.652Z,101538.03
2017-09-22T12:41:21.483Z,101534.63
2017-09-22T12:43:56.311Z,101533.29
2017-09-22T12:46:31.372Z,101530.51
2017-09-22T12:49:06.590Z,101535.63
2017-09-22T12:51:40.931Z,101524.94
2017-09-22T12:54:15.502Z,101523.75
2017-09-22T12:56:50.607Z,101525.11
2017-09-22T12:59:25.336Z,101534.51
2017-09-22T13:02:00.047Z,101529.86
2017-09-22T13:04:34.706Z,101526.30
2017-09-22T13:07:10.132Z,101526.27
2017-09-22T13:09:44.983Z,101523.05
2017-09-22T13:12:19.840Z,101521.25
2017-09-22T13:14:54.367Z,101525.13
2017-09-22T13:17:29.167Z,101526.77
2017-09-22T13:20:03.889Z,101528.56
2017-09-22T13:22:38.737Z,101522.92
2017-09-22T13:25:13.371Z,101525.92
2017-09-22T13:27:48.187Z,101522.19
2017-09-22T13:30:22.434Z,101528.39
2017-09-22T13:32:57.533Z,101526.23
2017-09-22T13:35:32.263Z,101527.49
2017-09-22T13:38:08.247Z,101530.36
2017-09-22T13:40:43.633Z,101532.52
2017-09-22T13:43:18.207Z,101537.91
2017-09-22T13:45:52.731Z,101540.36
2017-09-22T13:48:27.471Z,101542.83
2017-09-22T13:51:02.295Z,101541.04
2017-09-22T13:53:36.799Z,101544.02
2017-09-22T13:56:11.363Z,101539.08
2017-09-22T13:58:46.187Z,101533.20
2017-09-22T14:01:21.099Z,101530.16
2017-09-22T14:03:55.689Z,101533.66
2017-09-22T14:06:30.628Z,101533.22
2017-09-22T14:09:04.906Z,101535.88
2017-09-22T14:11:39.931Z,101528.53
2017-09-22T14:14:14.838Z,101523.80
2017-09-22T14:16:49.459Z,101528.01
2017-09-22T14:19:24.067Z,101525.80
2017-09-22T14:21:58.789Z,101529.72
2017-09-22T14:24:33.670Z,101529.92
2017-09-22T14:27:08.292Z,101529.61
2017-09-22T14:29:43.091Z,101526.07
2017-09-22T14:32:17.985Z,101528.10
2017-09-22T14:34:52.713Z,101521.73
2017-09-22T14:37:27.523Z,101523.47
2017-09-22T14:40:02.234Z,101525.44
2017-09-22T14:42:36.955Z,101526.05
2017-09-22T14:45:12.139Z,101529.53
2017-09-22T14:47:46.743Z,101527.77
2017-09-22T14:50:21.519Z,101531.11
2017-09-22T14:52:56.247Z,101530.12
2017-09-22T14:55:31.070Z,101533.46
2017-09-22T14:58:05.581Z,101530.55
2017-09-22T15:00:40.526Z,101535.77
2017-09-22T15:03:15.226Z,101541.05
2017-09-22T15:05:50.173Z,101536.16
2017-09-22T15:08:24.785Z,101537.09
2017-09-22T15:10:59.279Z,101537.37
2017-09-22T15:13:33.876Z,101540.23
2017-09-22T15:16:08.576Z,101537.48
2017-09-22T15:18:43.028Z,101541.79
2017-09-22T15:21:18.043Z,101538.98
2017-09-22T15:23:52.662Z,101539.13
2017-09-22T15:26:27.358Z,101539.02
2017-09-22T15:29:02.043Z,101539.74
2017-09-22T15:31:36.970Z,101540.92
2017-09-22T15:34:11.698Z,101540.95
2017-09-22T15:36:46.483Z,101537.52
2017-09-22T15:39:21.127Z,101541.97
2017-09-22T15:41:55.744Z,101535.47
2017-09-22T15:44:30.463Z,101549.64
2017-09-22T15:47:05.072Z,101544.48
2017-09-22T15:49:39.675Z,101549.81
2017-09-22T15:52:14.405Z,101544.94
2017-09-22T15:54:49.122Z,101553.34
2017-09-22T15:57:23.947Z,101555.04
2017-09-22T15:59:58.533Z,101547.83
2017-09-22T16:02:33.410Z,101552.41
2017-09-22T16:05:07.953Z,101555.31
2017-09-22T16:07:42.771Z,101549.27
2017-09-22T16:10:17.672Z,101558.86
2017-09-22T16:12:52.211Z,101552.52
2017-09-22T16:15:27.131Z,101558.40
2017-09-22T16:18:01.747Z,101563.86
2017-09-22T16:20:36.595Z,101571.13
2017-09-22T16:23:11.427Z,101566.64
2017-09-22T16:25:46.227Z,101571.40
2017-09-22T16:28:22.204Z,101570.97
2017-09-22T16:30:56.819Z,101569.21
2017-09-22T16:33:31.731Z,101573.22
2017-09-22T16:36:06.447Z,101570.00
2017-09-22T16:38:41.091Z,101569.47
2017-09-22T16:41:16.179Z,101574.77
2017-09-22T16:43:50.787Z,101572.07
2017-09-22T16:46:26.579Z,101569.50
2017-09-22T16:49:01.258Z,101575.59
2017-09-22T16:51:36.124Z,101573.06
2017-09-22T16:54:11.168Z,101578.31
2017-09-22T16:56:46.785Z,101582.16
2017-09-22T16:59:21.505Z,101585.63
2017-09-22T17:01:56.303Z,101593.65
2017-09-22T17:04:31.316Z,101593.97
2017-09-22T17:07:05.716Z,101599.87
2017-09-22T17:09:40.503Z,101602.98
2017-09-22T17:12:15.223Z,101604.09
2017-09-22T17:14:50.055Z,101602.39
2017-09-22T17:17:24.919Z,101608.14
2017-09-22T17:19:59.578Z,101599.27
2017-09-22T17:22:34.297Z,101610.03
2017-09-22T17:25:10.089Z,101612.67
2017-09-22T17:27:44.969Z,101610.73
2017-09-22T17:30:19.999Z,101601.91
2017-09-22T17:32:54.655Z,101606.52
2017-09-22T17:35:29.697Z,101606.69
2017-09-22T17:38:04.689Z,101615.52
2017-09-22T17:40:39.244Z,101614.55
2017-09-22T17:43:14.063Z,101627.55
2017-09-22T17:45:48.924Z,101624.50
2017-09-22T17:48:23.547Z,101620.08
2017-09-22T17:50:58.417Z,101622.23
2017-09-22T17:53:33.017Z,101621.92
2017-09-22T17:56:08.660Z,101628.48
2017-09-22T17:58:43.587Z,101625.55
2017-09-22T18:01:18.447Z,101628.84
2017-09-22T18:03:53.071Z,101632.13
2017-09-22T18:06:27.703Z,101629.41
2017-09-22T18:09:02.232Z,101629.17
2017-09-22T18:11:37.239Z,101629.38
2017-09-22T18:14:12.060Z,101631.27
2017-09-22T18:16:46.384Z,101634.69
2017-09-22T18:19:21.539Z,101636.94
2017-09-22T18:21:56.118Z,101648.21
2017-09-22T18:24:30.803Z,101648.73
2017-09-22T18:27:06.053Z,101649.30
2017-09-22T18:29:40.856Z,101651.05
2017-09-22T18:32:15.782Z,101642.08
2017-09-22T18:34:50.634Z,101648.96
2017-09-22T18:37:25.638Z,101643.25
2017-09-22T18:40:01.671Z,101644.11
2017-09-22T18:42:36.130Z,101642.67
2017-09-22T18:45:11.059Z,101644.96
2017-09-22T18:47:45.960Z,101638.20
2017-09-22T18:50:20.464Z,101646.15
2017-09-22T18:52:55.296Z,101643.67
2017-09-22T18:55:30.334Z,101649.05
2017-09-22T18:58:05.132Z,101651.09
2017-09-22T19:00:39.766Z,101649.23
2017-09-22T19:03:14.436Z,101657.91
2017-09-22T19:05:49.565Z,101660.83
2017-09-22T19:08:24.294Z,101663.50
2017-09-22T19:10:59.134Z,101663.02
2017-09-22T19:13:33.747Z,101664.21
2017-09-22T19:16:08.495Z,101669.23
2017-09-22T19:18:43.346Z,101667.70
2017-09-22T19:21:18.129Z,101670.61
2017-09-22T19:23:52.747Z,101671.28
2017-09-22T19:26:27.594Z,101675.96
2017-09-22T19:29:02.118Z,101676.96
2017-09-22T19:31:36.534Z,101679.83
2017-09-22T19:34:11.339Z,101671.84
2017-09-22T19:36:46.233Z,101677.44
2017-09-22T19:39:20.603Z,101672.14
2017-09-22T19:41:55.641Z,101673.06
2017-09-22T19:44:30.309Z,101670.20
2017-09-22T19:47:05.557Z,101671.79
2017-09-22T19:49:40.962Z,101674.22
2017-09-22T19:52:15.662Z,101671.42
2017-09-22T19:54:50.395Z,101670.06
2017-09-22T19:57:25.301Z,101681.25
2017-09-22T19:59:59.946Z,101676.09
2017-09-22T20:02:34.945Z,101680.62
2017-09-22T20:05:09.309Z,101677.56
2017-09-22T20:07:44.311Z,101680.73
2017-09-22T20:10:19.223Z,101680.13
2017-09-22T20:12:53.827Z,101687.34
2017-09-22T20:15:28.170Z,101689.54
2017-09-22T20:18:02.993Z,101691.59
2017-09-22T20:20:37.687Z,101691.05
2017-09-22T20:23:12.487Z,101697.70
2017-09-22T20:25:47.162Z,101697.73
2017-09-22T20:28:21.772Z,101708.19
2017-09-22T20:30:57.138Z,101705.84
2017-09-22T20:33:32.056Z,101714.08
2017-09-22T20:36:06.579Z,101720.16
2017-09-22T20:38:41.127Z,101725.63
2017-09-22T20:41:15.810Z,101725.85
2017-09-22T20:43:50.314Z,101728.50
2017-09-22T20:46:25.056Z,101733.18
2017-09-22T20:49:00.649Z,101745.25
2017-09-22T20:51:35.494Z,101744.39
2017-09-22T20:54:11.527Z,101744.09
2017-09-22T20:56:46.260Z,101748.55
2017-09-22T20:59:21.067Z,101748.53
2017-09-22T21:01:55.112Z,101751.18
2017-09-22T21:04:31.146Z,101749.89
2017-09-22T21:07:05.903Z,101745.90
2017-09-22T21:09:40.509Z,101748.09
2017-09-22T21:12:15.258Z,101742.89
2017-09-22T21:14:50.307Z,101739.77
2017-09-22T21:17:25.118Z,101740.56
2017-09-22T21:20:00.039Z,101741.61
2017-09-22T21:22:34.990Z,101739.42
2017-09-22T21:25:09.770Z,101738.87
2017-09-22T21:27:44.410Z,101743.13
2017-09-22T21:30:19.253Z,101739.95
2017-09-22T21:32:53.911Z,101744.98
2017-09-22T21:35:28.828Z,101746.83
2017-09-22T21:38:03.791Z,101747.55
2017-09-22T21:40:38.610Z,101752.81
2017-09-22T21:43:13.371Z,101753.56
2017-09-22T21:45:48.002Z,101751.66
2017-09-22T21:48:22.827Z,101744.20
2017-09-22T21:50:57.523Z,101741.20
2017-09-22T21:53:32.358Z,101738.63
2017-09-22T21:56:07.174Z,101730.68
2017-09-22T21:58:41.807Z,101735.00
2017-09-22T22:01:16.438Z,101740.44
2017-09-22T22:03:56.313Z,101735.58
2017-09-22T22:06:36.185Z,101736.19
2017-09-22T22:09:11.295Z,101739.45
2017-09-22T22:11:46.131Z,101743.48
2017-09-22T22:14:20.899Z,101735.78
2017-09-22T22:16:55.578Z,101737.36
2017-09-22T22:19:30.390Z,101739.80
2017-09-22T22:22:05.267Z,101727.63
2017-09-22T22:24:40.875Z,101725.11
2017-09-22T22:27:15.583Z,101727.38
2017-09-22T22:29:50.195Z,101723.94
2017-09-22T22:32:25.052Z,101719.93
2017-09-22T22:35:00.815Z,101719.91
2017-09-22T22:37:35.062Z,101715.83
2017-09-22T22:40:11.184Z,101719.40
2017-09-22T22:42:45.897Z,101718.92
2017-09-22T22:45:20.846Z,101722.49
2017-09-22T22:47:55.651Z,101722.00
2017-09-22T22:50:30.367Z,101724.76
2017-09-22T22:53:05.291Z,101738.03
2017-09-22T22:55:40.147Z,101737.25
2017-09-22T22:58:14.944Z,101745.34
2017-09-22T23:00:49.751Z,101747.79
2017-09-22T23:03:24.474Z,101749.52
2017-09-22T23:05:59.239Z,101749.77
2017-09-22T23:08:33.855Z,101749.86
2017-09-22T23:11:08.498Z,101759.12
2017-09-22T23:13:44.216Z,101771.09
2017-09-22T23:16:19.023Z,101776.54
2017-09-22T23:18:53.795Z,101779.34
2017-09-22T23:21:28.406Z,101780.14
2017-09-22T23:24:03.209Z,101778.27
2017-09-22T23:26:38.059Z,101771.73
2017-09-22T23:29:12.779Z,101775.02
2017-09-22T23:31:48.394Z,101777.23
2017-09-22T23:34:22.955Z,101776.09
2017-09-22T23:36:57.668Z,101778.78
2017-09-22T23:39:32.400Z,101774.76
2017-09-22T23:42:07.011Z,101770.06
2017-09-22T23:44:41.683Z,101779.20
2017-09-22T23:47:16.258Z,101784.25
2017-09-22T23:49:51.839Z,101782.77
2017-09-22T23:52:26.547Z,101786.14
2017-09-22T23:55:01.495Z,101789.36
2017-09-22T23:57:36.180Z,101793.87
